createdAt,value
2018-06-11T00:00:11.375Z,11.98
2018-06-11T00:02:40.951Z,12.30
2018-06-11T00:05:09.791Z,7.85
2018-06-11T00:07:38.625Z,8.95
2018-06-11T00:10:07.458Z,8.63
2018-06-11T00:12:36.286Z,9.43
2018-06-11T00:15:05.122Z,8.30
2018-06-11T00:17:34.708Z,10.57
2018-06-11T00:20:04.291Z,8.75
2018-06-11T00:22:33.136Z,9.85
2018-06-11T00:25:01.975Z,8.18
2018-06-11T00:27:30.812Z,8.88
2018-06-11T00:29:59.648Z,7.97
2018-06-11T00:32:28.492Z,9.55
2018-06-11T00:34:57.332Z,9.52
2018-06-11T00:37:26.907Z,11.12
2018-06-11T00:39:55.748Z,8.55
2018-06-11T00:42:25.334Z,10.18
2018-06-11T00:44:54.165Z,9.48
2018-06-11T00:47:23.356Z,8.80
2018-06-11T00:49:52.197Z,7.25
2018-06-11T00:52:21.039Z,10.02
2018-06-11T00:54:49.870Z,9.82
2018-06-11T00:57:18.703Z,10.50
2018-06-11T00:59:47.548Z,9.27
2018-06-11T01:02:16.376Z,7.55
2018-06-11T01:04:45.960Z,12.25
2018-06-11T01:07:14.798Z,10.93
2018-06-11T01:09:43.628Z,8.73
2018-06-11T01:12:12.484Z,11.55
2018-06-11T01:14:41.320Z,11.23
2018-06-11T01:17:10.152Z,10.45
2018-06-11T01:19:38.986Z,10.95
2018-06-11T01:22:07.817Z,11.00
2018-06-11T01:24:37.395Z,9.40
2018-06-11T01:27:06.235Z,11.27
2018-06-11T01:29:35.066Z,9.50
2018-06-11T01:32:03.893Z,9.00
2018-06-11T01:34:32.733Z,12.60
2018-06-11T01:37:01.558Z,10.43
2018-06-11T01:39:30.388Z,9.18
2018-06-11T01:41:59.218Z,10.23
2018-06-11T01:44:28.646Z,8.43
2018-06-11T01:46:57.473Z,8.40
2018-06-11T01:49:26.314Z,10.88
2018-06-11T01:51:55.898Z,7.70
2018-06-11T01:54:24.735Z,10.32
2018-06-11T01:56:53.566Z,8.90
2018-06-11T01:59:22.403Z,8.98
2018-06-11T02:01:51.237Z,9.85
2018-06-11T02:04:20.067Z,8.95
2018-06-11T02:06:49.649Z,8.85
2018-06-11T02:09:19.225Z,9.25
2018-06-11T02:11:48.077Z,9.32
2018-06-11T02:14:17.659Z,9.38
2018-06-11T02:16:46.490Z,8.43
2018-06-11T02:19:15.329Z,11.20
2018-06-11T02:21:44.177Z,9.85
2018-06-11T02:24:13.014Z,11.15
2018-06-11T02:26:41.856Z,10.80
2018-06-11T02:29:10.690Z,10.38
2018-06-11T02:31:39.536Z,11.38
2018-06-11T02:34:08.368Z,11.80
2018-06-11T02:36:37.951Z,10.38
2018-06-11T02:39:06.854Z,10.20
2018-06-11T02:41:35.647Z,10.68
2018-06-11T02:44:04.495Z,10.80
2018-06-11T02:46:33.334Z,10.52
2018-06-11T02:49:02.916Z,12.52
2018-06-11T02:51:31.754Z,12.88
2018-06-11T02:54:00.599Z,15.48
2018-06-11T02:56:29.423Z,9.52
2018-06-11T02:58:58.262Z,11.82
2018-06-11T03:01:27.093Z,12.90
2018-06-11T03:03:56.670Z,12.50
2018-06-11T03:06:25.501Z,11.12
2018-06-11T03:08:55.079Z,12.73
2018-06-11T03:11:23.915Z,9.77
2018-06-11T03:13:52.755Z,11.38
2018-06-11T03:16:21.596Z,11.27
2018-06-11T03:18:50.443Z,12.82
2018-06-11T03:21:19.282Z,11.00
2018-06-11T03:23:48.141Z,12.88
2018-06-11T03:26:16.960Z,13.75
2018-06-11T03:28:45.795Z,10.85
2018-06-11T03:31:14.638Z,11.30
2018-06-11T03:33:43.471Z,13.02
2018-06-11T03:36:12.308Z,11.63
2018-06-11T03:38:41.150Z,14.27
2018-06-11T03:41:09.996Z,13.77
2018-06-11T03:43:38.832Z,16.92
2018-06-11T03:46:07.672Z,15.68
2018-06-11T03:48:36.511Z,14.15
2018-06-11T03:51:05.345Z,16.15
2018-06-11T03:53:34.188Z,18.17
2018-06-11T03:56:03.045Z,17.75
2018-06-11T03:58:31.895Z,18.48
2018-06-11T04:01:00.743Z,19.62
2018-06-11T04:03:29.566Z,20.10
2018-06-11T04:05:59.149Z,17.05
2018-06-11T04:08:27.983Z,20.90
2018-06-11T04:10:56.832Z,21.62
2018-06-11T04:13:25.686Z,20.00
2018-06-11T04:15:54.518Z,22.33
2018-06-11T04:18:24.108Z,19.83
2018-06-11T04:20:52.947Z,21.23
2018-06-11T04:23:21.790Z,22.65
2018-06-11T04:25:50.630Z,22.60
2018-06-11T04:28:19.462Z,22.50
2018-06-11T04:30:48.302Z,20.77
2018-06-11T04:33:17.143Z,20.27
2018-06-11T04:35:45.978Z,21.95
2018-06-11T04:38:14.848Z,23.48
2018-06-11T04:40:44.420Z,22.45
2018-06-11T04:43:13.255Z,25.85
2018-06-11T04:45:42.103Z,25.52
2018-06-11T04:48:10.942Z,22.17
2018-06-11T04:50:39.789Z,25.30
2018-06-11T04:53:08.632Z,24.10
2018-06-11T04:55:37.733Z,20.70
2018-06-11T04:58:06.326Z,23.95
2018-06-11T05:00:35.158Z,26.65
2018-06-11T05:03:04.009Z,23.35
2018-06-11T05:05:32.850Z,23.02
2018-06-11T05:08:01.757Z,22.67
2018-06-11T05:10:30.574Z,21.87
2018-06-11T05:12:59.414Z,24.50
2018-06-11T05:15:28.265Z,25.27
2018-06-11T05:17:57.111Z,23.73
2018-06-11T05:20:25.982Z,22.70
2018-06-11T05:22:54.840Z,23.20
2018-06-11T05:25:23.678Z,23.55
2018-06-11T05:27:52.525Z,27.20
2018-06-11T05:30:21.379Z,29.17
2018-06-11T05:32:50.227Z,31.62
2018-06-11T05:35:19.091Z,28.62
2018-06-11T05:37:47.976Z,27.67
2018-06-11T05:40:16.837Z,27.42
2018-06-11T05:42:45.668Z,25.67
2018-06-11T05:45:15.249Z,28.77
2018-06-11T05:47:44.081Z,30.02
2018-06-11T05:50:12.927Z,28.20
2018-06-11T05:52:41.778Z,32.17
2018-06-11T05:55:10.625Z,29.02
2018-06-11T05:57:40.216Z,33.85
2018-06-11T06:00:09.127Z,29.65
2018-06-11T06:02:38.711Z,28.80
2018-06-11T06:05:07.551Z,32.42
2018-06-11T06:07:36.419Z,32.17
2018-06-11T06:10:06.002Z,31.27
2018-06-11T06:12:34.847Z,30.67
2018-06-11T06:15:03.888Z,28.08
2018-06-11T06:17:32.745Z,32.38
2018-06-11T06:20:01.602Z,29.87
2018-06-11T06:22:30.444Z,28.50
2018-06-11T06:24:59.288Z,26.05
2018-06-11T06:27:28.127Z,27.98
2018-06-11T06:29:56.972Z,25.85
2018-06-11T06:32:25.813Z,26.35
2018-06-11T06:34:54.670Z,25.55
2018-06-11T06:37:23.506Z,24.55
2018-06-11T06:39:52.357Z,24.00
2018-06-11T06:42:21.201Z,28.73
2018-06-11T06:44:50.055Z,22.70
2018-06-11T06:47:18.904Z,25.08
2018-06-11T06:49:47.739Z,25.10
2018-06-11T06:52:16.605Z,27.52
2018-06-11T06:54:45.457Z,26.87
2018-06-11T06:57:14.291Z,21.95
2018-06-11T06:59:43.137Z,20.48
2018-06-11T07:02:11.982Z,20.77
2018-06-11T07:04:40.849Z,19.58
2018-06-11T07:07:09.683Z,22.50
2018-06-11T07:09:38.573Z,24.57
2018-06-11T07:12:07.406Z,21.35
2018-06-11T07:14:36.247Z,22.67
2018-06-11T07:17:05.819Z,19.23
2018-06-11T07:19:34.671Z,21.23
2018-06-11T07:22:03.510Z,20.92
2018-06-11T07:24:32.348Z,18.35
2018-06-11T07:27:01.201Z,15.40
2018-06-11T07:29:30.029Z,16.10
2018-06-11T07:31:58.871Z,16.65
2018-06-11T07:34:27.727Z,15.77
2018-06-11T07:36:56.560Z,18.52
2018-06-11T07:39:25.408Z,16.25
2018-06-11T07:41:54.244Z,16.17
2018-06-11T07:44:23.840Z,16.05
2018-06-11T07:46:52.694Z,17.33
2018-06-11T07:49:21.534Z,16.90
2018-06-11T07:51:50.378Z,14.90
2018-06-11T07:54:19.229Z,17.37
2018-06-11T07:56:48.137Z,13.38
2018-06-11T07:59:16.908Z,12.48
2018-06-11T08:01:45.750Z,12.20
2018-06-11T08:04:15.341Z,13.43
2018-06-11T08:06:44.178Z,11.23
2018-06-11T08:09:13.027Z,12.20
2018-06-11T08:11:41.865Z,12.90
2018-06-11T08:14:10.714Z,13.40
2018-06-11T08:16:39.555Z,11.65
2018-06-11T08:19:08.404Z,13.43
2018-06-11T08:21:37.255Z,14.23
2018-06-11T08:24:06.091Z,14.13
2018-06-11T08:26:35.666Z,12.30
2018-06-11T08:29:04.508Z,13.43
2018-06-11T08:31:33.354Z,14.55
2018-06-11T08:34:02.207Z,14.43
2018-06-11T08:36:31.052Z,13.85
2018-06-11T08:38:59.928Z,13.18
2018-06-11T08:41:28.777Z,15.50
2018-06-11T08:43:57.630Z,16.95
2018-06-11T08:46:26.463Z,14.73
2018-06-11T08:48:55.334Z,14.15
2018-06-11T08:51:24.150Z,12.95
2018-06-11T08:53:53.001Z,14.73
2018-06-11T08:56:21.836Z,14.87
2018-06-11T08:58:50.679Z,14.20
2018-06-11T09:01:19.529Z,13.80
2018-06-11T09:03:48.381Z,12.85
2018-06-11T09:06:17.238Z,13.25
2018-06-11T09:08:46.087Z,12.60
2018-06-11T09:11:14.931Z,10.70
2018-06-11T09:13:43.968Z,11.23
2018-06-11T09:16:12.803Z,12.32
2018-06-11T09:18:41.650Z,10.93
2018-06-11T09:21:10.492Z,12.88
2018-06-11T09:23:39.398Z,13.75
2018-06-11T09:26:08.202Z,10.82
2018-06-11T09:28:37.040Z,12.65
2018-06-11T09:31:06.659Z,8.82
2018-06-11T09:33:35.458Z,8.65
2018-06-11T09:36:04.293Z,8.85
2018-06-11T09:38:33.719Z,7.93
2018-06-11T09:41:03.302Z,10.25
2018-06-11T09:43:32.137Z,11.05
2018-06-11T09:46:00.980Z,10.90
2018-06-11T09:48:29.831Z,10.40
2018-06-11T09:50:58.665Z,9.68
2018-06-11T09:53:27.515Z,11.27
2018-06-11T09:55:56.648Z,10.07
2018-06-11T09:58:25.943Z,12.70
2018-06-11T10:00:54.787Z,14.20
2018-06-11T10:03:23.632Z,12.02
2018-06-11T10:05:52.527Z,11.12
2018-06-11T10:08:21.327Z,12.65
2018-06-11T10:10:50.174Z,12.65
2018-06-11T10:13:19.027Z,16.00
2018-06-11T10:15:48.004Z,17.02
2018-06-11T10:18:17.457Z,13.02
2018-06-11T10:20:46.286Z,22.37
2018-06-11T10:23:15.127Z,19.08
2018-06-11T10:25:43.972Z,18.85
2018-06-11T10:28:12.826Z,20.65
2018-06-11T10:30:41.672Z,20.73
2018-06-11T10:33:10.516Z,27.62
2018-06-11T10:35:39.385Z,29.45
2018-06-11T10:38:08.193Z,24.45
2018-06-11T10:40:37.782Z,21.27
2018-06-11T10:43:06.645Z,25.03
2018-06-11T10:45:35.480Z,18.20
2018-06-11T10:48:04.324Z,21.37
2018-06-11T10:50:33.169Z,23.08
2018-06-11T10:53:02.791Z,20.05
2018-06-11T10:55:32.367Z,20.02
2018-06-11T10:58:01.326Z,26.17
2018-06-11T11:00:30.872Z,27.85
2018-06-11T11:02:59.711Z,31.27
2018-06-11T11:05:28.560Z,24.98
2018-06-11T11:07:58.142Z,29.30
2018-06-11T11:10:26.991Z,31.60
2018-06-11T11:12:55.827Z,28.05
2018-06-11T11:15:24.662Z,27.45
2018-06-11T11:17:53.508Z,27.45
2018-06-11T11:20:22.352Z,28.15
2018-06-11T11:22:51.207Z,30.60
2018-06-11T11:25:20.312Z,26.23
2018-06-11T11:27:48.895Z,24.75
2018-06-11T11:30:17.747Z,21.83
2018-06-11T11:32:46.591Z,22.08
2018-06-11T11:35:15.439Z,22.37
2018-06-11T11:37:45.025Z,19.33
2018-06-11T11:40:13.866Z,19.58
2018-06-11T11:42:42.704Z,17.12
2018-06-11T11:45:11.547Z,16.25
2018-06-11T11:47:40.383Z,17.62
2018-06-11T11:50:09.238Z,18.45
2018-06-11T11:52:38.084Z,28.35
2018-06-11T11:55:06.937Z,24.08
2018-06-11T11:57:35.781Z,22.92
2018-06-11T12:00:04.651Z,26.02
2018-06-11T12:02:33.472Z,21.00
2018-06-11T12:05:02.308Z,23.02
2018-06-11T12:07:31.193Z,23.50
2018-06-11T12:09:59.997Z,25.20
2018-06-11T12:12:28.857Z,22.37
2018-06-11T12:14:57.699Z,22.15
2018-06-11T12:17:26.556Z,20.90
2018-06-11T12:19:55.415Z,20.02
2018-06-11T12:22:24.259Z,22.70
2018-06-11T12:24:53.095Z,27.02
2018-06-11T12:27:21.935Z,23.00
2018-06-11T12:29:50.784Z,25.88
2018-06-11T12:32:19.621Z,22.70
2018-06-11T12:34:48.475Z,22.08
2018-06-11T12:37:17.327Z,21.73
2018-06-11T12:39:46.225Z,20.73
2018-06-11T12:42:15.767Z,19.92
2018-06-11T12:44:44.612Z,23.52
2018-06-11T12:47:13.469Z,20.60
2018-06-11T12:49:54.902Z,19.77
2018-06-11T12:52:23.754Z,19.48
2018-06-11T12:54:52.599Z,17.55
2018-06-11T12:57:21.451Z,17.27
2018-06-11T12:59:50.298Z,17.58
2018-06-11T13:02:19.903Z,16.33
2018-06-11T13:04:49.491Z,17.98
2018-06-11T13:07:18.359Z,19.10
2018-06-11T13:09:47.196Z,17.40
2018-06-11T13:12:16.031Z,14.55
2018-06-11T13:14:44.882Z,14.43
2018-06-11T13:17:13.730Z,12.23
2018-06-11T13:19:42.558Z,13.48
2018-06-11T13:22:12.205Z,12.18
2018-06-11T13:24:40.976Z,14.38
2018-06-11T13:27:09.822Z,12.20
2018-06-11T13:29:38.675Z,12.50
2018-06-11T13:32:07.525Z,13.88
2018-06-11T13:34:37.115Z,13.27
2018-06-11T13:37:05.965Z,12.70
2018-06-11T13:39:34.787Z,13.32
2018-06-11T13:42:04.380Z,12.90
2018-06-11T13:44:33.218Z,12.00
2018-06-11T13:47:02.056Z,12.63
2018-06-11T13:49:30.907Z,12.55
2018-06-11T13:51:59.790Z,13.23
2018-06-11T13:54:28.641Z,12.95
2018-06-11T13:56:57.504Z,12.43
2018-06-11T13:59:26.325Z,12.48
2018-06-11T14:01:56.133Z,11.32
2018-06-11T14:04:24.971Z,12.82
2018-06-11T14:06:53.831Z,11.80
2018-06-11T14:09:22.688Z,13.98
2018-06-11T14:11:51.539Z,13.82
2018-06-11T14:14:20.389Z,14.40
2018-06-11T14:16:49.990Z,13.40
2018-06-11T14:19:19.648Z,13.88
2018-06-11T14:21:49.196Z,15.10
2018-06-11T14:24:18.052Z,13.65
2018-06-11T14:26:46.885Z,13.82
2018-06-11T14:29:15.728Z,14.82
2018-06-11T14:31:44.568Z,13.65
2018-06-11T14:34:13.403Z,15.07
2018-06-11T14:36:42.247Z,16.60
2018-06-11T14:39:11.836Z,14.95
2018-06-11T14:41:42.667Z,10.48
2018-06-11T14:44:11.581Z,8.35
2018-06-11T14:46:40.423Z,7.20
2018-06-11T14:49:09.310Z,9.55
2018-06-11T14:51:38.117Z,8.25
2018-06-11T14:54:06.959Z,7.03
2018-06-11T14:56:35.805Z,8.93
2018-06-11T14:59:04.638Z,7.03
2018-06-11T15:01:33.490Z,7.87
2018-06-11T15:04:03.063Z,5.60
2018-06-11T15:06:31.892Z,9.02
2018-06-11T15:09:00.745Z,9.18
2018-06-11T15:11:29.595Z,11.35
2018-06-11T15:13:58.435Z,10.95
2018-06-11T15:16:27.274Z,12.90
2018-06-11T15:18:56.116Z,14.27
2018-06-11T15:21:24.955Z,12.07
2018-06-11T15:23:53.819Z,15.40
2018-06-11T15:26:23.400Z,13.85
2018-06-11T15:28:52.257Z,10.07
2018-06-11T15:31:21.110Z,11.38
2018-06-11T15:33:50.732Z,10.00
2018-06-11T15:36:19.548Z,8.45
2018-06-11T15:38:48.423Z,15.75
2018-06-11T15:41:17.281Z,8.35
2018-06-11T15:43:46.875Z,14.98
2018-06-11T15:46:15.741Z,9.43
2018-06-11T15:48:44.600Z,13.68
2018-06-11T15:51:13.429Z,12.32
2018-06-11T15:53:42.299Z,19.62
2018-06-11T15:56:11.146Z,14.50
2018-06-11T15:58:40.007Z,13.13
2018-06-11T16:01:08.873Z,13.85
2018-06-11T16:03:37.699Z,19.15
2018-06-11T16:06:07.290Z,18.23
2018-06-11T16:08:36.131Z,14.20
2018-06-11T16:11:04.970Z,20.65
2018-06-11T16:13:33.815Z,16.30
2018-06-11T16:16:02.668Z,18.90
2018-06-11T16:18:32.271Z,21.67
2018-06-11T16:21:01.091Z,23.87
2018-06-11T16:23:29.956Z,25.80
2018-06-11T16:25:59.541Z,19.95
2018-06-11T16:28:28.388Z,16.67
2018-06-11T16:30:57.235Z,17.65
2018-06-11T16:33:26.824Z,15.55
2018-06-11T16:35:55.675Z,15.70
2018-06-11T16:38:24.724Z,15.68
2018-06-11T16:40:53.567Z,12.63
2018-06-11T16:43:22.405Z,11.63
2018-06-11T16:45:51.982Z,8.30
2018-06-11T16:48:20.811Z,8.40
2018-06-11T16:50:49.649Z,8.30
2018-06-11T16:53:18.502Z,7.62
2018-06-11T16:55:47.336Z,8.32
2018-06-11T16:58:16.180Z,9.20
2018-06-11T17:00:45.030Z,9.90
2018-06-11T17:03:13.863Z,9.95
2018-06-11T17:05:42.712Z,17.85
2018-06-11T17:08:11.567Z,17.48
2018-06-11T17:10:40.433Z,18.73
2018-06-11T17:13:09.295Z,24.40
2018-06-11T17:15:38.154Z,20.75
2018-06-11T17:18:07.575Z,21.80
2018-06-11T17:20:36.411Z,22.15
2018-06-11T17:23:05.251Z,15.85
2018-06-11T17:25:34.110Z,17.48
2018-06-11T17:28:02.935Z,23.73
2018-06-11T17:30:32.526Z,24.20
2018-06-11T17:33:01.382Z,23.73
2018-06-11T17:35:30.218Z,25.27
2018-06-11T17:37:59.054Z,23.45
2018-06-11T17:40:27.899Z,22.80
2018-06-11T17:42:56.735Z,24.10
2018-06-11T17:45:25.573Z,20.48
2018-06-11T17:47:55.160Z,24.60
2018-06-11T17:50:24.012Z,19.87
2018-06-11T17:52:52.859Z,21.10
2018-06-11T17:55:22.447Z,18.27
2018-06-11T17:57:51.303Z,17.87
2018-06-11T18:00:20.168Z,19.15
2018-06-11T18:02:48.960Z,19.08
2018-06-11T18:05:17.814Z,22.25
2018-06-11T18:07:46.647Z,25.58
2018-06-11T18:10:15.498Z,25.40
2018-06-11T18:12:44.362Z,26.00
2018-06-11T18:15:13.195Z,29.67
2018-06-11T18:17:42.042Z,27.95
2018-06-11T18:20:10.896Z,25.45
2018-06-11T18:22:39.732Z,27.75
2018-06-11T18:25:08.592Z,28.42
2018-06-11T18:27:37.423Z,34.63
2018-06-11T18:30:07.029Z,28.60
2018-06-11T18:32:36.645Z,28.12
2018-06-11T18:35:05.500Z,26.50
2018-06-11T18:37:34.330Z,27.45
2018-06-11T18:40:03.189Z,27.27
2018-06-11T18:42:32.038Z,27.05
2018-06-11T18:45:00.904Z,27.75
2018-06-11T18:47:29.762Z,28.60
2018-06-11T18:49:58.596Z,24.30
2018-06-11T18:52:27.449Z,25.05
2018-06-11T18:54:57.039Z,23.60
2018-06-11T18:57:25.886Z,28.00
2018-06-11T18:59:54.736Z,21.42
2018-06-11T19:02:24.394Z,24.08
2018-06-11T19:04:53.189Z,23.67
2018-06-11T19:07:22.040Z,28.25
2018-06-11T19:09:50.889Z,26.27
2018-06-11T19:12:19.779Z,26.87
2018-06-11T19:14:48.587Z,28.12
2018-06-11T19:17:17.444Z,28.27
2018-06-11T19:19:46.291Z,34.38
2018-06-11T19:22:15.154Z,29.75
2018-06-11T19:24:44.752Z,29.42
2018-06-11T19:27:14.333Z,30.17
2018-06-11T19:29:43.207Z,28.48
2018-06-11T19:32:12.029Z,28.40
2018-06-11T19:34:40.880Z,29.80
2018-06-11T19:37:09.720Z,29.70
2018-06-11T19:39:39.301Z,29.52
2018-06-11T19:42:08.144Z,30.77
2018-06-11T19:44:36.997Z,33.08
2018-06-11T19:47:05.844Z,31.48
2018-06-11T19:49:34.683Z,30.00
2018-06-11T19:52:03.534Z,32.45
2018-06-11T19:54:32.380Z,41.60
2018-06-11T19:57:01.220Z,34.85
2018-06-11T19:59:30.262Z,36.22
2018-06-11T20:01:59.106Z,36.00
2018-06-11T20:04:27.964Z,35.65
2018-06-11T20:06:56.814Z,35.65
2018-06-11T20:09:25.946Z,35.97
2018-06-11T20:11:54.746Z,43.15
2018-06-11T20:14:23.609Z,38.38
2018-06-11T20:16:52.452Z,36.50
2018-06-11T20:19:21.318Z,38.58
2018-06-11T20:21:50.892Z,38.00
2018-06-11T20:24:19.736Z,40.53
2018-06-11T20:26:49.204Z,40.40
2018-06-11T20:29:18.057Z,40.30
2018-06-11T20:31:47.636Z,37.65
2018-06-11T20:34:16.482Z,39.55
2018-06-11T20:36:45.386Z,42.13
2018-06-11T20:39:14.223Z,41.53
2018-06-11T20:41:43.803Z,43.08
2018-06-11T20:44:12.676Z,49.75
2018-06-11T20:46:41.526Z,42.88
2018-06-11T20:49:10.371Z,42.47
2018-06-11T20:51:39.212Z,42.38
2018-06-11T20:54:08.075Z,44.55
2018-06-11T20:56:36.936Z,47.88
2018-06-11T20:59:05.783Z,53.03
2018-06-11T21:01:34.652Z,46.65
2018-06-11T21:04:04.254Z,48.05
2018-06-11T21:06:33.094Z,46.40
2018-06-11T21:09:01.942Z,47.00
2018-06-11T21:11:30.777Z,50.55
2018-06-11T21:13:59.681Z,45.90
2018-06-11T21:16:28.479Z,45.83
2018-06-11T21:18:57.320Z,46.80
2018-06-11T21:21:26.171Z,47.13
2018-06-11T21:23:55.042Z,46.05
2018-06-11T21:26:23.880Z,49.83
2018-06-11T21:28:52.724Z,45.42
2018-06-11T21:31:21.571Z,44.70
2018-06-11T21:33:50.417Z,45.78
2018-06-11T21:36:19.275Z,39.15
2018-06-11T21:38:48.120Z,48.87
2018-06-11T21:41:16.983Z,42.92
2018-06-11T21:43:45.825Z,45.50
2018-06-11T21:46:14.683Z,46.53
2018-06-11T21:48:43.539Z,47.15
2018-06-11T21:51:12.368Z,46.55
2018-06-11T21:53:41.313Z,47.15
2018-06-11T21:56:10.047Z,47.47
2018-06-11T21:58:38.894Z,46.60
2018-06-11T22:01:07.797Z,49.97
2018-06-11T22:03:36.685Z,45.95
2018-06-11T22:06:05.494Z,51.75
2018-06-11T22:08:34.343Z,45.80
2018-06-11T22:11:03.186Z,48.87
2018-06-11T22:13:32.029Z,44.55
2018-06-11T22:16:00.872Z,42.58
2018-06-11T22:18:29.712Z,42.65
2018-06-11T22:20:58.558Z,40.05
2018-06-11T22:23:27.412Z,49.70
2018-06-11T22:25:57.013Z,42.30
2018-06-11T22:28:26.601Z,45.22
2018-06-11T22:30:55.445Z,49.00
2018-06-11T22:33:24.284Z,42.78
2018-06-11T22:35:53.153Z,45.20
2018-06-11T22:38:22.000Z,46.85
2018-06-11T22:40:50.863Z,41.47
2018-06-11T22:43:19.707Z,42.80
2018-06-11T22:45:48.555Z,43.03
2018-06-11T22:48:17.400Z,45.58
2018-06-11T22:50:46.234Z,44.85
2018-06-11T22:53:15.821Z,43.42
2018-06-11T22:55:45.402Z,42.20
2018-06-11T22:58:14.304Z,42.75
2018-06-11T23:00:43.098Z,38.70
2018-06-11T23:03:11.931Z,43.87
2018-06-11T23:05:40.772Z,43.50
2018-06-11T23:08:09.605Z,43.83
2018-06-11T23:10:38.446Z,43.63
2018-06-11T23:13:07.291Z,46.97
2018-06-11T23:15:36.129Z,41.40
2018-06-11T23:18:04.984Z,40.03
2018-06-11T23:20:33.823Z,43.65
2018-06-11T23:23:02.671Z,37.15
2018-06-11T23:25:31.520Z,43.60
2018-06-11T23:28:00.367Z,44.47
2018-06-11T23:30:29.207Z,40.10
2018-06-11T23:32:58.041Z,37.88
2018-06-11T23:35:26.892Z,35.03
2018-06-11T23:37:55.735Z,37.83
2018-06-11T23:40:24.602Z,36.58
2018-06-11T23:42:53.443Z,39.58
2018-06-11T23:45:22.291Z,33.90
2018-06-11T23:47:51.139Z,36.15
2018-06-11T23:50:19.985Z,39.97
2018-06-11T23:52:48.809Z,32.55
2018-06-11T23:55:17.675Z,34.67
2018-06-11T23:57:47.260Z,32.83
